createdAt,value
2023-04-23T00:02:02.957Z,15.94
2023-04-23T00:04:36.486Z,15.51
2023-04-23T00:07:04.167Z,15.85
2023-04-23T00:09:32.561Z,15.78
2023-04-23T00:12:01.836Z,16.09
2023-04-23T00:14:28.811Z,16.15
2023-04-23T00:16:55.940Z,15.99
2023-04-23T00:19:22.633Z,15.84
2023-04-23T00:21:49.419Z,15.95
2023-04-23T00:24:16.141Z,16.17
2023-04-23T00:26:42.846Z,16.21
2023-04-23T00:29:09.727Z,16.08
2023-04-23T00:31:36.421Z,16.13
2023-04-23T00:34:03.367Z,16.41
2023-04-23T00:36:30.725Z,16.40
2023-04-23T00:38:57.473Z,16.58
2023-04-23T00:41:24.689Z,16.54
2023-04-23T00:43:53.078Z,16.20
2023-04-23T00:46:20.214Z,16.34
2023-04-23T00:48:47.625Z,16.28
2023-04-23T00:51:16.793Z,16.05
2023-04-23T00:53:43.404Z,15.92
2023-04-23T00:56:10.739Z,16.19
2023-04-23T00:58:38.150Z,16.11
2023-04-23T01:01:04.969Z,16.29
2023-04-23T01:03:36.294Z,16.32
2023-04-23T01:06:03.996Z,16.30
2023-04-23T01:08:32.112Z,16.32
2023-04-23T01:10:59.944Z,16.50
2023-04-23T01:13:29.530Z,16.62
2023-04-23T01:15:57.265Z,16.73
2023-04-23T01:18:24.665Z,16.78
2023-04-23T01:20:51.629Z,16.81
2023-04-23T01:23:18.566Z,16.88
2023-04-23T01:25:46.309Z,16.85
2023-04-23T01:28:13.812Z,16.93
2023-04-23T01:30:43.397Z,16.96
2023-04-23T01:33:11.297Z,16.98
2023-04-23T01:35:39.249Z,17.04
2023-04-23T01:38:09.420Z,16.89
2023-04-23T01:40:36.587Z,16.91
2023-04-23T01:43:04.495Z,17.01
2023-04-23T01:45:31.866Z,17.04
2023-04-23T01:48:00.430Z,16.93
2023-04-23T01:50:29.107Z,16.92
2023-04-23T01:52:55.966Z,16.93
2023-04-23T01:55:23.680Z,16.62
2023-04-23T01:57:51.556Z,16.71
2023-04-23T02:00:18.740Z,16.71
2023-04-23T02:02:45.574Z,16.67
2023-04-23T02:05:16.422Z,16.67
2023-04-23T02:07:44.372Z,16.73
2023-04-23T02:10:11.515Z,16.71
2023-04-23T02:12:38.857Z,16.65
2023-04-23T02:15:07.308Z,16.53
2023-04-23T02:17:34.214Z,16.51
2023-04-23T02:20:01.333Z,16.50
2023-04-23T02:22:28.590Z,16.57
2023-04-23T02:24:55.323Z,16.47
2023-04-23T02:27:22.157Z,16.48
2023-04-23T02:29:49.011Z,16.47
2023-04-23T02:32:15.819Z,16.61
2023-04-23T02:34:43.086Z,16.34
2023-04-23T02:37:10.299Z,16.60
2023-04-23T02:39:39.026Z,16.63
2023-04-23T02:42:06.347Z,16.67
2023-04-23T02:44:33.223Z,16.50
2023-04-23T02:47:00.569Z,16.67
2023-04-23T02:49:27.310Z,16.67
2023-04-23T02:51:54.108Z,16.67
2023-04-23T02:54:20.794Z,16.71
2023-04-23T02:56:47.759Z,16.72
2023-04-23T02:59:14.470Z,16.78
2023-04-23T03:01:41.395Z,16.73
2023-04-23T03:04:09.921Z,16.75
2023-04-23T03:06:37.342Z,16.68
2023-04-23T03:09:04.902Z,16.76
2023-04-23T03:11:31.710Z,16.62
2023-04-23T03:13:58.441Z,16.50
2023-04-23T03:16:26.911Z,16.50
2023-04-23T03:18:53.736Z,16.37
2023-04-23T03:21:20.554Z,16.43
2023-04-23T03:23:47.276Z,16.28
2023-04-23T03:26:14.011Z,16.10
2023-04-23T03:28:40.644Z,16.29
2023-04-23T03:31:07.380Z,16.36
2023-04-23T03:33:34.147Z,16.33
2023-04-23T03:36:00.805Z,16.35
2023-04-23T03:38:30.692Z,16.37
2023-04-23T03:40:58.745Z,16.42
2023-04-23T03:43:25.651Z,16.35
2023-04-23T03:46:12.273Z,16.22
2023-04-23T03:48:41.612Z,16.20
2023-04-23T03:51:18.032Z,16.21
2023-04-23T03:53:48.988Z,16.25
2023-04-23T03:56:44.756Z,16.00
2023-04-23T03:59:11.975Z,16.02
2023-04-23T04:01:38.722Z,16.05
2023-04-23T04:04:05.612Z,16.19
2023-04-23T04:06:33.199Z,16.12
2023-04-23T04:08:59.819Z,16.08
2023-04-23T04:11:26.786Z,16.02
2023-04-23T04:13:53.426Z,16.11
2023-04-23T04:16:20.161Z,16.20
2023-04-23T04:18:46.832Z,16.05
2023-04-23T04:21:13.598Z,16.24
2023-04-23T04:23:40.223Z,16.18
2023-04-23T04:26:08.171Z,16.14
2023-04-23T04:28:37.252Z,16.23
2023-04-23T04:31:05.564Z,16.24
2023-04-23T04:33:35.579Z,16.08
2023-04-23T04:36:02.283Z,16.17
2023-04-23T04:38:29.802Z,16.11
2023-04-23T04:41:00.217Z,16.15
2023-04-23T04:43:27.080Z,16.24
2023-04-23T04:45:53.819Z,16.10
2023-04-23T04:48:20.724Z,16.08
2023-04-23T04:50:47.947Z,16.07
2023-04-23T04:53:14.657Z,16.02
2023-04-23T04:55:41.564Z,15.85
2023-04-23T04:58:08.219Z,15.97
2023-04-23T05:00:34.885Z,15.97
2023-04-23T05:03:01.854Z,16.07
2023-04-23T05:05:28.548Z,16.25
2023-04-23T05:07:55.275Z,16.13
2023-04-23T05:10:21.895Z,16.23
2023-04-23T05:12:48.613Z,15.93
2023-04-23T05:15:15.475Z,16.11
2023-04-23T05:17:42.772Z,15.91
2023-04-23T05:20:10.922Z,16.08
2023-04-23T05:22:42.130Z,16.15
2023-04-23T05:25:10.498Z,16.21
2023-04-23T05:27:37.390Z,16.33
2023-04-23T05:30:06.185Z,16.35
2023-04-23T05:32:33.526Z,16.43
2023-04-23T05:35:02.714Z,16.60
2023-04-23T05:37:31.100Z,16.82
2023-04-23T05:40:00.714Z,16.77
2023-04-23T05:42:27.441Z,16.79
2023-04-23T05:44:54.401Z,16.94
2023-04-23T05:47:21.594Z,16.89
2023-04-23T05:49:48.237Z,16.78
2023-04-23T05:52:15.403Z,16.88
2023-04-23T05:54:42.502Z,16.59
2023-04-23T05:57:09.546Z,16.70
2023-04-23T05:59:36.175Z,16.46
2023-04-23T06:02:03.003Z,16.72
2023-04-23T06:04:29.890Z,16.77
2023-04-23T06:06:56.759Z,16.83
2023-04-23T06:09:23.509Z,16.85
2023-04-23T06:11:52.295Z,16.89
2023-04-23T06:14:18.973Z,16.82
2023-04-23T06:16:45.653Z,16.52
2023-04-23T06:19:12.832Z,16.87
2023-04-23T06:21:39.600Z,16.99
2023-04-23T06:24:08.026Z,17.18
2023-04-23T06:26:35.047Z,17.48
2023-04-23T06:29:09.975Z,17.58
2023-04-23T06:32:02.560Z,17.89
2023-04-23T06:34:29.286Z,17.98
2023-04-23T06:36:57.026Z,18.08
2023-04-23T06:39:23.732Z,17.64
2023-04-23T06:41:50.631Z,17.60
2023-04-23T06:44:34.328Z,17.83
2023-04-23T06:47:02.012Z,17.81
2023-04-23T06:49:28.652Z,18.09
2023-04-23T06:51:57.550Z,17.72
2023-04-23T06:54:24.487Z,17.40
2023-04-23T06:56:51.150Z,17.84
2023-04-23T06:59:17.841Z,17.97
2023-04-23T07:01:47.486Z,17.98
2023-04-23T07:04:14.273Z,18.04
2023-04-23T07:06:40.908Z,18.05
2023-04-23T07:09:07.529Z,18.09
2023-04-23T07:11:36.509Z,18.06
2023-04-23T07:14:03.901Z,18.13
2023-04-23T07:16:33.477Z,18.11
2023-04-23T07:19:02.235Z,18.22
2023-04-23T07:21:29.229Z,18.12
2023-04-23T07:23:57.480Z,18.07
2023-04-23T07:26:25.361Z,18.21
2023-04-23T07:28:52.874Z,18.39
2023-04-23T07:31:20.639Z,18.61
2023-04-23T07:33:47.835Z,18.64
2023-04-23T07:36:14.491Z,18.59
2023-04-23T07:38:41.244Z,18.62
2023-04-23T07:41:08.111Z,18.81
2023-04-23T07:43:34.850Z,19.09
2023-04-23T07:46:01.850Z,19.22
2023-04-23T07:48:28.606Z,19.42
2023-04-23T07:50:55.626Z,19.85
2023-04-23T07:53:22.673Z,20.29
2023-04-23T07:55:49.360Z,20.48
2023-04-23T07:58:16.048Z,21.01
2023-04-23T08:00:42.764Z,21.26
2023-04-23T08:03:09.483Z,21.58
2023-04-23T08:05:38.415Z,21.92
2023-04-23T08:08:05.150Z,21.30
2023-04-23T08:10:32.093Z,21.46
2023-04-23T08:12:58.767Z,21.77
2023-04-23T08:15:25.423Z,21.89
2023-04-23T08:17:52.140Z,22.15
2023-04-23T08:20:19.209Z,21.93
2023-04-23T08:22:45.975Z,21.06
2023-04-23T08:25:13.248Z,21.14
2023-04-23T08:27:39.890Z,20.84
2023-04-23T08:30:08.288Z,20.42
2023-04-23T08:32:35.154Z,20.43
2023-04-23T08:35:01.873Z,20.58
2023-04-23T08:37:31.345Z,20.28
2023-04-23T08:39:58.413Z,20.14
2023-04-23T08:42:57.275Z,20.11
2023-04-23T08:45:24.751Z,20.63
2023-04-23T08:47:51.538Z,20.92
2023-04-23T08:50:20.026Z,21.15
2023-04-23T08:52:55.445Z,21.40
2023-04-23T08:55:23.184Z,21.07
2023-04-23T08:57:50.476Z,21.35
2023-04-23T09:00:19.597Z,21.22
2023-04-23T09:02:48.380Z,21.49
2023-04-23T09:05:16.921Z,21.92
2023-04-23T09:07:44.365Z,21.75
2023-04-23T09:10:13.387Z,21.43
2023-04-23T09:12:43.738Z,21.50
2023-04-23T09:15:11.860Z,21.60
2023-04-23T09:17:41.028Z,21.81
2023-04-23T09:20:11.470Z,22.03
2023-04-23T09:22:47.900Z,22.07
2023-04-23T09:25:20.628Z,21.71
2023-04-23T09:27:49.009Z,21.54
2023-04-23T09:30:17.089Z,21.32
2023-04-23T09:32:49.441Z,21.97
2023-04-23T09:35:19.798Z,23.70
2023-04-23T09:37:49.630Z,25.01
2023-04-23T09:40:20.264Z,24.50
2023-04-23T09:42:49.597Z,23.51
2023-04-23T09:45:16.938Z,22.98
2023-04-23T09:47:51.778Z,22.63
2023-04-23T09:50:35.860Z,22.60
2023-04-23T09:53:03.380Z,23.01
2023-04-23T09:55:40.685Z,23.43
2023-04-23T09:58:15.707Z,23.67
2023-04-23T10:00:43.082Z,24.13
2023-04-23T10:03:10.982Z,24.12
2023-04-23T10:08:14.424Z,24.38
2023-04-23T10:10:55.177Z,24.09
2023-04-23T10:13:27.374Z,24.14
2023-04-23T10:15:55.023Z,23.56
2023-04-23T10:18:21.979Z,23.25
2023-04-23T10:20:49.985Z,22.80
2023-04-23T10:23:19.313Z,22.75
2023-04-23T10:25:47.699Z,22.63
2023-04-23T10:28:21.825Z,22.57
2023-04-23T10:30:49.668Z,23.18
2023-04-23T10:33:29.019Z,23.09
2023-04-23T10:35:57.872Z,23.33
2023-04-23T10:38:28.286Z,24.29
2023-04-23T10:40:58.636Z,25.12
2023-04-23T10:43:25.789Z,25.19
2023-04-23T10:45:53.692Z,25.11
2023-04-23T10:48:20.993Z,26.27
2023-04-23T10:51:09.754Z,25.52
2023-04-23T10:53:45.896Z,25.72
2023-04-23T10:56:12.665Z,26.36
2023-04-23T10:58:50.577Z,26.80
2023-04-23T11:01:21.894Z,27.00
2023-04-23T11:03:48.833Z,28.86
2023-04-23T11:06:39.498Z,30.26
2023-04-23T11:09:28.793Z,29.97
2023-04-23T11:11:55.680Z,29.98
2023-04-23T11:14:34.833Z,32.18
2023-04-23T11:17:02.859Z,34.80
2023-04-23T11:19:30.199Z,33.03
2023-04-23T11:21:58.446Z,33.81
2023-04-23T11:24:42.790Z,32.29
2023-04-23T11:27:19.731Z,31.20
2023-04-23T11:29:49.755Z,32.08
2023-04-23T11:32:17.442Z,32.99
2023-04-23T11:34:45.563Z,33.45
2023-04-23T11:37:17.530Z,31.83
2023-04-23T11:39:45.928Z,30.83
2023-04-23T11:42:14.468Z,30.48
2023-04-23T11:44:42.859Z,30.13
2023-04-23T11:47:14.328Z,29.84
2023-04-23T11:49:44.047Z,30.38
2023-04-23T11:52:11.906Z,31.42
2023-04-23T11:54:41.717Z,32.17
2023-04-23T11:57:08.757Z,32.18
2023-04-23T11:59:35.626Z,31.64
2023-04-23T12:02:02.271Z,31.36
2023-04-23T12:04:30.562Z,31.71
2023-04-23T12:06:58.869Z,30.90
2023-04-23T12:09:28.200Z,30.49
2023-04-23T12:11:56.801Z,30.29
2023-04-23T12:14:30.846Z,30.72
2023-04-23T12:16:59.041Z,29.29
2023-04-23T12:19:31.073Z,30.59
2023-04-23T12:22:02.398Z,31.14
2023-04-23T12:24:46.550Z,30.16
2023-04-23T12:27:20.310Z,29.09
2023-04-23T12:29:47.932Z,29.77
2023-04-23T12:32:15.545Z,29.50
2023-04-23T12:34:55.590Z,29.15
2023-04-23T12:37:30.472Z,28.17
2023-04-23T12:39:59.647Z,27.17
2023-04-23T12:42:26.538Z,27.28
2023-04-23T12:44:55.606Z,26.75
2023-04-23T12:47:22.670Z,26.67
2023-04-23T12:49:53.083Z,26.97
2023-04-23T12:52:20.743Z,26.74
2023-04-23T12:54:51.700Z,26.74
2023-04-23T12:57:22.113Z,26.38
2023-04-23T12:59:49.279Z,25.27
2023-04-23T13:02:16.051Z,24.94
2023-04-23T13:04:42.746Z,25.08
2023-04-23T13:07:10.019Z,25.65
2023-04-23T13:09:36.689Z,25.61
2023-04-23T13:12:03.467Z,25.80
2023-04-23T13:14:32.050Z,25.48
2023-04-23T13:16:58.669Z,25.48
2023-04-23T13:19:25.512Z,24.80
2023-04-23T13:21:52.202Z,25.13
2023-04-23T13:24:18.836Z,24.78
2023-04-23T13:26:45.449Z,24.90
2023-04-23T13:29:12.195Z,24.47
2023-04-23T13:31:38.910Z,24.66
2023-04-23T13:34:05.583Z,24.75
2023-04-23T13:36:32.239Z,24.37
2023-04-23T13:38:58.842Z,24.21
2023-04-23T13:41:25.538Z,24.47
2023-04-23T13:43:52.608Z,23.67
2023-04-23T13:46:19.710Z,23.86
2023-04-23T13:48:46.584Z,23.71
2023-04-23T13:51:26.460Z,23.51
2023-04-23T13:53:59.640Z,23.16
2023-04-23T13:56:30.399Z,22.51
2023-04-23T13:59:18.066Z,21.79
2023-04-23T14:01:48.336Z,20.61
2023-04-23T14:04:15.470Z,19.93
2023-04-23T14:06:42.659Z,20.16
2023-04-23T14:09:10.001Z,20.55
2023-04-23T14:11:37.364Z,20.69
2023-04-23T14:14:04.378Z,20.50
2023-04-23T14:16:31.040Z,20.29
2023-04-23T14:18:58.483Z,20.41
2023-04-23T14:21:25.190Z,20.46
2023-04-23T14:24:01.947Z,20.51
2023-04-23T14:26:41.218Z,20.72
2023-04-23T14:29:40.967Z,20.48
2023-04-23T14:32:08.077Z,20.90
2023-04-23T14:34:37.319Z,21.35
2023-04-23T14:37:04.465Z,21.28
2023-04-23T14:39:31.433Z,21.65
2023-04-23T14:41:58.155Z,21.62
2023-04-23T14:44:26.839Z,21.93
2023-04-23T14:46:53.499Z,21.94
2023-04-23T14:49:23.087Z,21.44
2023-04-23T14:51:54.102Z,21.60
2023-04-23T14:54:21.626Z,21.75
2023-04-23T14:56:48.448Z,21.40
2023-04-23T14:59:15.161Z,21.42
2023-04-23T15:01:41.940Z,21.24
2023-04-23T15:04:10.720Z,21.09
2023-04-23T15:06:38.310Z,20.85
2023-04-23T15:09:05.110Z,21.18
2023-04-23T15:11:32.348Z,21.19
2023-04-23T15:14:06.332Z,21.00
2023-04-23T15:19:10.214Z,21.47
2023-04-23T15:21:37.454Z,21.62
2023-04-23T15:24:04.408Z,21.53
2023-04-23T15:26:33.514Z,21.11
2023-04-23T15:29:00.535Z,21.06
2023-04-23T15:31:27.355Z,20.47
2023-04-23T15:33:54.021Z,20.17
2023-04-23T15:36:20.691Z,19.54
2023-04-23T15:38:47.354Z,19.21
2023-04-23T15:41:14.131Z,18.35
2023-04-23T15:43:40.860Z,18.30
2023-04-23T15:46:07.561Z,18.05
2023-04-23T15:48:34.173Z,18.18
2023-04-23T15:51:01.030Z,17.95
2023-04-23T15:53:28.263Z,18.09
2023-04-23T15:55:54.883Z,17.71
2023-04-23T15:58:21.506Z,18.14
2023-04-23T16:00:48.229Z,18.90
2023-04-23T16:03:15.675Z,19.22
2023-04-23T16:05:43.116Z,19.20
2023-04-23T16:08:09.920Z,18.92
2023-04-23T16:10:38.043Z,18.93
2023-04-23T16:13:06.030Z,19.31
2023-04-23T16:15:32.813Z,19.36
2023-04-23T16:18:00.197Z,18.86
2023-04-23T16:20:28.282Z,19.64
2023-04-23T16:22:55.192Z,19.93
2023-04-23T16:25:21.939Z,19.70
2023-04-23T16:27:49.000Z,19.64
2023-04-23T16:30:16.412Z,19.70
2023-04-23T16:32:43.215Z,19.32
2023-04-23T16:35:10.302Z,19.62
2023-04-23T16:37:37.046Z,19.43
2023-04-23T16:40:04.529Z,19.50
2023-04-23T16:42:31.500Z,19.41
2023-04-23T16:44:58.258Z,19.24
2023-04-23T16:47:25.157Z,19.29
2023-04-23T16:49:52.848Z,19.29
2023-04-23T16:52:19.691Z,19.20
2023-04-23T16:54:49.258Z,19.26
2023-04-23T16:57:16.913Z,19.19
2023-04-23T16:59:43.625Z,19.13
2023-04-23T17:02:10.375Z,19.03
2023-04-23T17:04:37.527Z,18.67
2023-04-23T17:07:04.380Z,18.58
2023-04-23T17:09:31.753Z,18.21
2023-04-23T17:11:59.166Z,18.22
2023-04-23T17:14:26.481Z,17.66
2023-04-23T17:16:53.116Z,18.22
2023-04-23T17:19:19.818Z,17.80
2023-04-23T17:21:46.528Z,18.01
2023-04-23T17:24:13.217Z,17.86
2023-04-23T17:26:40.008Z,18.21
2023-04-23T17:29:06.976Z,18.38
2023-04-23T17:31:35.853Z,18.38
2023-04-23T17:34:03.477Z,18.45
2023-04-23T17:36:30.122Z,18.51
2023-04-23T17:38:56.894Z,18.64
2023-04-23T17:41:23.828Z,18.29
2023-04-23T17:43:50.536Z,18.45
2023-04-23T17:46:17.334Z,18.37
2023-04-23T17:48:44.844Z,18.42
2023-04-23T17:51:11.572Z,18.35
2023-04-23T17:53:38.349Z,17.95
2023-04-23T17:56:05.435Z,17.51
2023-04-23T17:58:32.106Z,18.18
2023-04-23T18:00:58.970Z,17.91
2023-04-23T18:03:26.552Z,18.34
2023-04-23T18:05:53.965Z,18.08
2023-04-23T18:08:21.226Z,18.16
2023-04-23T18:10:47.956Z,18.30
2023-04-23T18:13:14.932Z,17.77
2023-04-23T18:15:42.254Z,18.00
2023-04-23T18:18:09.158Z,17.99
2023-04-23T18:20:38.522Z,17.83
2023-04-23T18:23:06.428Z,17.91
2023-04-23T18:25:33.154Z,17.82
2023-04-23T18:28:00.096Z,17.86
2023-04-23T18:30:26.877Z,17.66
2023-04-23T18:33:08.477Z,17.63
2023-04-23T18:35:42.589Z,17.54
2023-04-23T18:38:24.324Z,17.46
2023-04-23T18:40:51.388Z,17.28
2023-04-23T18:43:18.677Z,17.55
2023-04-23T18:45:45.351Z,17.56
2023-04-23T18:48:44.934Z,17.57
2023-04-23T18:51:18.818Z,17.69
2023-04-23T18:53:46.214Z,17.60
2023-04-23T18:56:12.830Z,17.56
2023-04-23T18:58:39.479Z,17.41
2023-04-23T19:01:06.252Z,17.52
2023-04-23T19:03:33.150Z,17.21
2023-04-23T19:05:59.896Z,16.99
2023-04-23T19:08:28.772Z,17.16
2023-04-23T19:10:57.269Z,17.06
2023-04-23T19:13:24.362Z,17.07
2023-04-23T19:15:51.472Z,17.07
2023-04-23T19:18:18.753Z,17.03
2023-04-23T19:20:45.580Z,16.78
2023-04-23T19:23:12.318Z,16.89
2023-04-23T19:25:39.292Z,16.86
2023-04-23T19:28:06.029Z,16.65
2023-04-23T19:30:32.738Z,16.66
2023-04-23T19:32:59.556Z,16.74
2023-04-23T19:35:26.520Z,16.54
2023-04-23T19:37:53.571Z,16.65
2023-04-23T19:40:20.347Z,16.56
2023-04-23T19:42:47.104Z,16.68
2023-04-23T19:45:16.472Z,16.70
2023-04-23T19:47:43.281Z,16.87
2023-04-23T19:50:10.509Z,16.64
2023-04-23T19:52:37.187Z,16.39
2023-04-23T19:55:04.300Z,16.54
2023-04-23T19:57:31.047Z,16.66
2023-04-23T19:59:57.862Z,16.64
2023-04-23T20:02:24.881Z,16.66
2023-04-23T20:04:51.811Z,16.31
2023-04-23T20:07:18.723Z,16.59
2023-04-23T20:09:45.581Z,16.23
2023-04-23T20:12:13.830Z,16.45
2023-04-23T20:14:40.468Z,16.56
2023-04-23T20:17:07.906Z,16.16
2023-04-23T20:19:34.803Z,15.76
2023-04-23T20:22:02.475Z,15.95
2023-04-23T20:24:29.224Z,16.03
2023-04-23T20:26:56.540Z,16.03
2023-04-23T20:29:23.239Z,16.26
2023-04-23T20:31:50.018Z,16.23
2023-04-23T20:34:16.895Z,16.07
2023-04-23T20:36:46.894Z,16.04
2023-04-23T20:39:13.848Z,16.10
2023-04-23T20:41:40.839Z,16.02
2023-04-23T20:44:07.513Z,15.76
2023-04-23T20:46:36.547Z,15.78
2023-04-23T20:49:03.822Z,16.00
2023-04-23T20:51:34.546Z,15.99
2023-04-23T20:54:02.299Z,16.29
2023-04-23T20:56:29.844Z,16.24
2023-04-23T20:58:59.944Z,16.27
2023-04-23T21:01:26.972Z,16.23
2023-04-23T21:03:54.096Z,16.20
2023-04-23T21:06:21.698Z,16.11
2023-04-23T21:08:48.868Z,15.79
2023-04-23T21:11:18.154Z,15.78
2023-04-23T21:13:45.944Z,16.20
2023-04-23T21:16:13.326Z,15.41
2023-04-23T21:18:40.368Z,15.37
2023-04-23T21:21:07.867Z,15.31
2023-04-23T21:23:34.719Z,15.45
2023-04-23T21:26:01.776Z,15.45
2023-04-23T21:28:28.407Z,15.42
2023-04-23T21:30:56.880Z,15.48
2023-04-23T21:33:25.322Z,15.46
2023-04-23T21:35:53.498Z,15.62
2023-04-23T21:38:21.298Z,15.52
2023-04-23T21:40:48.121Z,15.56
2023-04-23T21:43:14.882Z,15.61
2023-04-23T21:45:41.631Z,15.61
2023-04-23T21:48:08.559Z,15.17
2023-04-23T21:50:36.022Z,15.49
2023-04-23T21:53:03.886Z,15.12
2023-04-23T21:55:31.680Z,15.37
2023-04-23T21:58:13.344Z,15.28
2023-04-23T22:00:44.620Z,15.29
2023-04-23T22:03:12.412Z,15.49
2023-04-23T22:05:40.811Z,15.54
2023-04-23T22:08:07.542Z,14.99
2023-04-23T22:10:34.369Z,15.22
2023-04-23T22:13:01.272Z,15.52
2023-04-23T22:15:29.241Z,15.54
2023-04-23T22:17:59.119Z,15.50
2023-04-23T22:20:25.928Z,15.28
2023-04-23T22:22:52.747Z,15.39
2023-04-23T22:25:19.490Z,15.41
2023-04-23T22:27:46.179Z,15.24
2023-04-23T22:30:13.268Z,15.43
2023-04-23T22:32:40.864Z,15.45
2023-04-23T22:35:08.284Z,15.19
2023-04-23T22:37:35.678Z,15.23
2023-04-23T22:40:04.096Z,15.27
2023-04-23T22:42:31.039Z,15.33
2023-04-23T22:44:57.845Z,15.20
2023-04-23T22:47:24.948Z,15.10
2023-04-23T22:49:51.621Z,14.90
2023-04-23T22:52:18.350Z,15.06
2023-04-23T22:54:45.136Z,15.13
2023-04-23T22:57:12.037Z,15.23
2023-04-23T22:59:40.186Z,14.92
2023-04-23T23:02:07.503Z,15.07
2023-04-23T23:04:37.742Z,15.19
2023-04-23T23:07:08.375Z,15.19
2023-04-23T23:09:35.123Z,15.22
2023-04-23T23:12:03.253Z,15.12
2023-04-23T23:14:30.578Z,15.09
2023-04-23T23:16:57.485Z,15.12
2023-04-23T23:19:24.866Z,15.29
2023-04-23T23:21:51.733Z,15.34
2023-04-23T23:24:19.114Z,15.41
2023-04-23T23:26:46.555Z,15.41
2023-04-23T23:29:13.331Z,14.93
2023-04-23T23:31:40.258Z,15.00
2023-04-23T23:34:06.943Z,15.31
2023-04-23T23:36:34.131Z,15.02
2023-04-23T23:39:01.165Z,15.03
2023-04-23T23:41:27.840Z,15.10
2023-04-23T23:43:54.708Z,15.09
2023-04-23T23:46:22.583Z,15.07
2023-04-23T23:48:49.563Z,15.23
2023-04-23T23:51:16.368Z,14.99
2023-04-23T23:53:43.199Z,15.39
2023-04-23T23:56:09.874Z,15.48
2023-04-23T23:58:36.616Z,15.40
